Decoded Metar for KLWM (LAWRENCE in MA, USA) (IATA:LWM) | Meteo·Mobile Aviation Weather
aviador You're here:

KLWM Decoded Metar

LAWRENCE in MA, USA
Report Time2019-03-19 17:54:00
UTC Time2019-03-19 18:58:46
Flight Rules vfr VFR
Wind320° at 11 Gusting to 18 kt
W.Decomp.*RWY 32: 10.6 kt HW 2.8 kt RCW
RWY 05: 2.8 kt HW 10.6 kt LCW
W.Rank320° ranks 14
Current wind is above 320° avg. (7.9)
Visibility9999 m
Phenomena:N/A
Clouds:Broken 070 Hf
Expected CloudBase > 6,000 ft AGL from Temp-Dew spread
Ceiling7,000 ft
Temp05°C (ISA -10)
Dew Point-10°C (33% RH)
AAT-2.0°C
QNH1028 hPa
Density Alt-1,453 ft
Elevation177 ft
Report Wrong Elevation
Raw Report
KLWM 191754Z 32011G18KT 270V350 10SM BKN070 05/M10 A3035 RMK AO2
SLP281 T00501100 10056 21028 58012=

Extra information for KLWM:More info

Metar Taf Metar & Taf Last 4 Metars F.Rules Stats Wind Profile Meteogram Temp Stats Airport Information Weather charts Add Link Nearby VenuesMetar ALERT Operation Metar Decoded Social comments

AIRNAV info for KLWM